createdAt,value
2018-08-03T00:00:30.024Z,24.90
2018-08-03T00:02:59.039Z,24.90
2018-08-03T00:05:27.541Z,24.80
2018-08-03T00:07:56.007Z,24.80
2018-08-03T00:10:24.688Z,24.80
2018-08-03T00:12:53.126Z,24.70
2018-08-03T00:15:22.858Z,24.70
2018-08-03T00:17:51.344Z,24.70
2018-08-03T00:22:48.048Z,24.50
2018-08-03T00:25:16.475Z,24.60
2018-08-03T00:27:44.907Z,24.50
2018-08-03T00:30:13.417Z,24.50
2018-08-03T00:32:41.956Z,24.40
2018-08-03T00:35:10.598Z,24.40
2018-08-03T00:37:39.098Z,24.30
2018-08-03T00:40:07.627Z,24.30
2018-08-03T00:42:36.393Z,24.20
2018-08-03T00:45:07.439Z,24.20
2018-08-03T00:47:36.381Z,24.20
2018-08-03T00:50:05.091Z,24.10
2018-08-03T00:52:33.584Z,24.10
2018-08-03T00:55:02.072Z,24.00
2018-08-03T00:57:31.460Z,23.90
2018-08-03T00:59:59.915Z,23.80
2018-08-03T01:02:28.357Z,23.70
2018-08-03T01:04:56.833Z,23.60
2018-08-03T01:07:25.437Z,23.60
2018-08-03T01:09:53.942Z,23.70
2018-08-03T01:14:50.550Z,23.50
2018-08-03T01:17:18.962Z,23.40
2018-08-03T01:19:47.392Z,23.30
2018-08-03T01:22:15.897Z,23.20
2018-08-03T01:24:44.593Z,23.20
2018-08-03T01:27:13.167Z,23.10
2018-08-03T01:29:41.642Z,23.20
2018-08-03T01:32:10.620Z,23.20
2018-08-03T01:34:39.188Z,23.10
2018-08-03T01:37:07.659Z,23.00
2018-08-03T01:39:36.736Z,23.00
2018-08-03T01:42:05.183Z,22.90
2018-08-03T01:44:34.206Z,22.90
2018-08-03T01:47:02.708Z,22.80
2018-08-03T01:49:31.152Z,22.70
2018-08-03T01:51:59.669Z,22.70
2018-08-03T01:54:28.116Z,22.70
2018-08-03T01:56:56.592Z,22.70
2018-08-03T01:59:25.062Z,22.70
2018-08-03T02:01:53.515Z,22.70
2018-08-03T02:04:22.056Z,22.60
2018-08-03T02:06:50.513Z,22.60
2018-08-03T02:11:47.151Z,22.50
2018-08-03T02:14:15.635Z,22.50
2018-08-03T02:16:44.076Z,22.50
2018-08-03T02:19:12.585Z,22.50
2018-08-03T02:21:41.225Z,22.40
2018-08-03T02:24:09.774Z,22.40
2018-08-03T02:26:38.233Z,22.40
2018-08-03T02:29:06.824Z,22.30
2018-08-03T02:31:35.278Z,22.20
2018-08-03T02:34:03.984Z,22.20
2018-08-03T02:36:32.469Z,22.20
2018-08-03T02:39:00.903Z,22.20
2018-08-03T02:41:29.565Z,22.20
2018-08-03T02:43:58.110Z,22.10
2018-08-03T02:46:26.619Z,22.00
2018-08-03T02:48:55.092Z,22.00
2018-08-03T02:53:51.709Z,21.90
2018-08-03T02:56:20.209Z,21.90
2018-08-03T02:58:48.734Z,21.80
2018-08-03T03:01:17.342Z,21.80
2018-08-03T03:03:45.906Z,21.80
2018-08-03T03:06:14.319Z,21.70
2018-08-03T03:08:42.799Z,21.70
2018-08-03T03:11:11.531Z,21.70
2018-08-03T03:16:08.296Z,21.70
2018-08-03T03:18:36.726Z,21.70
2018-08-03T03:21:05.244Z,21.70
2018-08-03T03:23:33.740Z,21.70
2018-08-03T03:26:02.175Z,21.60
2018-08-03T03:28:31.253Z,21.60
2018-08-03T03:30:59.729Z,21.60
2018-08-03T03:33:28.209Z,21.60
2018-08-03T03:35:56.584Z,21.50
2018-08-03T03:38:25.038Z,21.50
2018-08-03T03:40:53.551Z,21.50
2018-08-03T03:43:22.041Z,21.40
2018-08-03T03:45:50.607Z,21.50
2018-08-03T03:48:19.073Z,21.50
2018-08-03T03:50:47.825Z,21.50
2018-08-03T03:53:16.312Z,21.40
2018-08-03T03:55:45.340Z,21.40
2018-08-03T03:58:14.176Z,21.40
2018-08-03T04:00:42.632Z,21.30
2018-08-03T04:03:11.088Z,21.30
2018-08-03T04:05:39.898Z,21.30
2018-08-03T04:08:08.355Z,21.30
2018-08-03T04:10:37.464Z,21.30
2018-08-03T04:13:06.174Z,21.20
2018-08-03T04:15:34.816Z,21.30
2018-08-03T04:18:03.275Z,21.30
2018-08-03T04:20:31.745Z,21.30
2018-08-03T04:23:00.251Z,21.30
2018-08-03T04:25:28.834Z,21.20
2018-08-03T04:27:57.482Z,21.20
2018-08-03T04:30:26.016Z,21.30
2018-08-03T04:32:54.534Z,21.30
2018-08-03T04:37:51.091Z,21.30
2018-08-03T04:40:19.665Z,21.30
2018-08-03T04:45:16.222Z,21.30
2018-08-03T04:50:13.308Z,21.40
2018-08-03T04:52:41.772Z,21.40
2018-08-03T04:55:10.690Z,21.50
2018-08-03T04:57:39.119Z,21.50
2018-08-03T05:00:07.612Z,21.60
2018-08-03T05:02:36.016Z,21.60
2018-08-03T05:05:07.711Z,21.90
2018-08-03T05:07:39.186Z,22.40
2018-08-03T05:10:07.868Z,23.10
2018-08-03T05:12:36.797Z,23.60
2018-08-03T05:15:06.106Z,24.10
2018-08-03T05:17:34.580Z,24.30
2018-08-03T05:20:03.896Z,24.30
2018-08-03T05:22:32.345Z,24.60
2018-08-03T05:25:00.846Z,24.90
2018-08-03T05:27:29.325Z,24.80
2018-08-03T05:29:57.782Z,25.00
2018-08-03T05:32:26.312Z,25.20
2018-08-03T05:34:54.820Z,25.40
2018-08-03T05:37:23.268Z,25.60
2018-08-03T05:39:53.722Z,25.70
2018-08-03T05:42:28.361Z,26.30
2018-08-03T05:45:02.322Z,26.50
2018-08-03T05:47:35.327Z,27.00
2018-08-03T05:50:08.791Z,26.70
2018-08-03T05:52:42.558Z,26.70
2018-08-03T05:55:17.063Z,26.90
2018-08-03T05:57:51.488Z,26.90
2018-08-03T06:00:24.966Z,27.00
2018-08-03T06:02:58.222Z,26.70
2018-08-03T06:05:31.410Z,27.20
2018-08-03T06:08:00.049Z,27.20
2018-08-03T06:10:28.512Z,27.50
2018-08-03T06:12:56.989Z,27.50
2018-08-03T06:15:25.464Z,27.80
2018-08-03T06:17:53.979Z,27.50
2018-08-03T06:20:26.873Z,27.90
2018-08-03T06:22:59.891Z,28.10
2018-08-03T06:25:35.053Z,28.80
2018-08-03T06:28:08.461Z,28.40
2018-08-03T06:30:41.781Z,28.80
2018-08-03T06:33:14.566Z,28.90
2018-08-03T06:38:16.187Z,28.80
2018-08-03T06:40:44.663Z,29.20
2018-08-03T06:43:16.945Z,28.50
2018-08-03T06:45:53.207Z,28.10
2018-08-03T06:48:25.362Z,28.20
2018-08-03T06:50:58.798Z,28.70
2018-08-03T06:56:06.865Z,29.30
2018-08-03T06:58:40.411Z,30.00
2018-08-03T07:01:13.261Z,30.00
2018-08-03T07:03:44.032Z,28.80
2018-08-03T07:06:12.643Z,28.20
2018-08-03T07:08:41.763Z,27.90
2018-08-03T07:11:15.212Z,27.80
2018-08-03T07:13:49.024Z,27.60
2018-08-03T07:16:24.236Z,28.10
2018-08-03T07:19:02.246Z,29.20
2018-08-03T07:21:32.503Z,31.40
2018-08-03T07:26:38.411Z,30.90
2018-08-03T07:29:14.071Z,31.30
2018-08-03T07:31:47.656Z,31.60
2018-08-03T07:34:21.591Z,31.70
2018-08-03T07:36:54.988Z,32.20
2018-08-03T07:39:30.355Z,31.60
2018-08-03T07:42:03.968Z,31.20
2018-08-03T07:44:37.286Z,31.50
2018-08-03T07:47:10.333Z,31.70
2018-08-03T07:49:43.575Z,32.00
2018-08-03T07:52:12.965Z,31.40
2018-08-03T07:54:42.549Z,31.20
2018-08-03T07:57:13.379Z,32.40
2018-08-03T07:59:47.084Z,32.40
2018-08-03T08:02:20.932Z,32.00
2018-08-03T08:04:54.869Z,33.50
2018-08-03T08:07:28.348Z,32.80
2018-08-03T08:10:02.755Z,33.40
2018-08-03T08:12:36.018Z,33.20
2018-08-03T08:15:10.164Z,32.90
2018-08-03T08:17:44.402Z,33.40
2018-08-03T08:20:17.235Z,33.30
2018-08-03T08:25:19.115Z,34.60
2018-08-03T08:27:47.781Z,34.40
2018-08-03T08:30:20.266Z,34.00
2018-08-03T08:32:55.796Z,34.20
2018-08-03T08:35:29.865Z,35.30
2018-08-03T08:38:03.755Z,34.80
2018-08-03T08:40:35.670Z,35.80
2018-08-03T08:43:09.079Z,34.40
2018-08-03T08:45:42.864Z,35.40
2018-08-03T08:48:16.049Z,33.70
2018-08-03T08:53:21.249Z,33.30
2018-08-03T08:55:50.911Z,34.50
2018-08-03T08:58:19.683Z,33.70
2018-08-03T09:00:54.975Z,34.80
2018-08-03T09:03:26.886Z,33.90
2018-08-03T09:17:13.834Z,34.50
2018-08-03T09:19:42.374Z,34.50
2018-08-03T09:22:11.309Z,35.20
2018-08-03T09:24:44.578Z,35.20
2018-08-03T09:27:17.826Z,35.30
2018-08-03T09:29:50.751Z,34.60
2018-08-03T09:32:23.373Z,35.70
2018-08-03T09:34:52.507Z,36.70
2018-08-03T09:37:21.172Z,36.30
2018-08-03T09:39:55.109Z,36.50
2018-08-03T09:42:29.505Z,37.10
2018-08-03T09:45:01.674Z,36.50
2018-08-03T09:47:36.261Z,35.60
2018-08-03T09:50:10.761Z,35.50
2018-08-03T09:52:43.911Z,35.50
2018-08-03T09:55:17.709Z,35.90
2018-08-03T09:57:51.578Z,35.40
2018-08-03T10:00:30.371Z,36.70
2018-08-03T10:03:00.848Z,36.80
2018-08-03T10:05:36.501Z,36.70
2018-08-03T10:08:04.959Z,36.20
2018-08-03T10:10:33.481Z,36.10
2018-08-03T10:13:08.632Z,35.40
2018-08-03T10:15:37.124Z,35.70
2018-08-03T10:18:09.020Z,36.60
2018-08-03T10:20:42.456Z,36.40
2018-08-03T10:23:16.532Z,35.50
2018-08-03T10:25:50.537Z,35.40
2018-08-03T10:28:23.892Z,34.90
2018-08-03T10:30:57.393Z,35.10
2018-08-03T10:33:30.273Z,35.40
2018-08-03T10:38:41.530Z,36.40
2018-08-03T10:41:14.432Z,36.00
2018-08-03T10:43:52.317Z,36.00
2018-08-03T10:46:23.999Z,35.70
2018-08-03T10:48:56.893Z,35.60
2018-08-03T10:51:32.082Z,35.10
2018-08-03T10:54:04.827Z,35.30
2018-08-03T10:56:40.219Z,34.80
2018-08-03T10:59:13.084Z,34.70
2018-08-03T11:01:48.608Z,35.20
2018-08-03T11:04:20.913Z,36.30
2018-08-03T11:06:55.249Z,36.50
2018-08-03T11:09:28.668Z,35.60
2018-08-03T11:12:03.125Z,35.40
2018-08-03T11:14:36.561Z,35.60
2018-08-03T11:17:09.726Z,36.20
2018-08-03T11:19:42.878Z,36.10
2018-08-03T11:22:18.425Z,35.50
2018-08-03T11:24:54.507Z,35.20
2018-08-03T11:27:27.217Z,35.70
2018-08-03T11:30:01.039Z,35.50
2018-08-03T11:32:35.100Z,34.60
2018-08-03T11:35:09.855Z,35.10
2018-08-03T11:37:43.068Z,35.60
2018-08-03T11:40:16.833Z,34.70
2018-08-03T11:42:50.639Z,34.80
2018-08-03T11:45:25.664Z,35.80
2018-08-03T11:47:59.221Z,35.80
2018-08-03T11:50:32.965Z,35.80
2018-08-03T11:53:06.738Z,35.60
2018-08-03T11:55:40.408Z,35.20
2018-08-03T11:58:13.856Z,35.70
2018-08-03T12:00:49.092Z,35.60
2018-08-03T12:03:23.811Z,35.60
2018-08-03T12:05:58.424Z,35.50
2018-08-03T12:08:31.049Z,35.10
2018-08-03T12:11:04.727Z,35.00
2018-08-03T12:13:38.239Z,34.70
2018-08-03T12:16:14.184Z,34.20
2018-08-03T12:18:47.649Z,34.20
2018-08-03T12:21:20.451Z,33.90
2018-08-03T12:23:53.999Z,34.00
2018-08-03T12:26:27.416Z,34.00
2018-08-03T12:29:00.777Z,34.10
2018-08-03T12:31:34.131Z,34.10
2018-08-03T12:34:02.797Z,34.00
2018-08-03T12:39:06.088Z,33.90
2018-08-03T12:41:38.392Z,34.00
2018-08-03T12:44:12.699Z,33.80
2018-08-03T12:46:46.155Z,33.70
2018-08-03T12:49:19.532Z,33.70
2018-08-03T12:51:52.824Z,33.70
2018-08-03T12:54:26.114Z,33.80
2018-08-03T12:59:27.627Z,33.90
2018-08-03T13:01:56.099Z,33.90
2018-08-03T13:04:30.396Z,34.00
2018-08-03T13:07:02.375Z,33.90
2018-08-03T13:09:35.544Z,33.90
2018-08-03T13:12:08.018Z,33.90
2018-08-03T13:14:36.539Z,33.80
2018-08-03T13:17:05.260Z,34.00
2018-08-03T13:19:37.275Z,34.10
2018-08-03T13:22:17.482Z,34.10
2018-08-03T13:24:46.042Z,34.10
2018-08-03T13:27:19.825Z,34.20
2018-08-03T13:29:53.256Z,34.10
2018-08-03T13:32:27.005Z,34.20
2018-08-03T13:35:00.494Z,34.30
2018-08-03T13:37:33.701Z,34.30
2018-08-03T13:40:07.139Z,34.50
2018-08-03T13:42:43.558Z,34.30
2018-08-03T13:45:17.358Z,34.30
2018-08-03T13:47:46.008Z,34.60
2018-08-03T13:50:14.498Z,34.50
2018-08-03T13:52:43.241Z,34.70
2018-08-03T13:55:12.137Z,34.80
2018-08-03T13:57:40.994Z,34.80
2018-08-03T14:00:12.069Z,34.70
2018-08-03T14:02:44.945Z,34.80
2018-08-03T14:05:18.611Z,34.60
2018-08-03T14:07:47.070Z,34.60
2018-08-03T14:10:15.560Z,34.50
2018-08-03T14:12:44.202Z,34.60
2018-08-03T14:15:13.208Z,34.50
2018-08-03T14:17:42.168Z,34.60
2018-08-03T14:20:12.657Z,34.60
2018-08-03T14:22:47.145Z,34.70
2018-08-03T14:25:20.461Z,34.60
2018-08-03T14:27:53.956Z,34.50
2018-08-03T14:30:27.718Z,34.60
2018-08-03T14:33:07.130Z,34.50
2018-08-03T14:35:36.407Z,34.50
2018-08-03T14:38:10.330Z,34.60
2018-08-03T14:40:43.704Z,34.50
2018-08-03T14:43:17.094Z,34.60
2018-08-03T14:45:50.127Z,34.60
2018-08-03T14:48:23.237Z,34.60
2018-08-03T14:50:51.876Z,34.60
2018-08-03T14:53:20.763Z,34.80
2018-08-03T14:55:53.259Z,34.60
2018-08-03T14:58:27.941Z,34.50
2018-08-03T15:01:01.203Z,34.50
2018-08-03T15:03:34.568Z,34.60
2018-08-03T15:06:08.181Z,34.50
2018-08-03T15:08:43.464Z,34.50
2018-08-03T15:11:12.068Z,34.50
2018-08-03T15:13:41.635Z,34.60
2018-08-03T15:16:10.185Z,34.40
2018-08-03T15:18:39.761Z,34.40
2018-08-03T15:21:10.163Z,34.20
2018-08-03T15:23:38.641Z,34.30
2018-08-03T15:26:07.295Z,34.20
2018-08-03T15:28:35.808Z,34.30
2018-08-03T15:31:06.858Z,34.30
2018-08-03T15:33:35.403Z,34.40
2018-08-03T15:36:03.933Z,34.40
2018-08-03T15:38:32.600Z,34.40
2018-08-03T15:41:01.118Z,34.40
2018-08-03T15:43:29.719Z,34.50
2018-08-03T15:45:58.253Z,34.40
2018-08-03T15:48:26.942Z,34.40
2018-08-03T15:50:56.293Z,34.20
2018-08-03T15:53:24.944Z,34.20
2018-08-03T15:55:54.364Z,34.20
2018-08-03T15:58:23.103Z,34.20
2018-08-03T16:00:51.717Z,34.10
2018-08-03T16:03:20.266Z,33.90
2018-08-03T16:05:48.811Z,34.00
2018-08-03T16:08:17.363Z,34.10
2018-08-03T16:10:46.133Z,34.00
2018-08-03T16:13:15.092Z,34.00
2018-08-03T16:15:43.576Z,34.10
2018-08-03T16:18:12.088Z,34.10
2018-08-03T16:20:40.578Z,34.20
2018-08-03T16:23:09.274Z,34.20
2018-08-03T16:25:37.800Z,34.20
2018-08-03T16:28:06.375Z,34.00
2018-08-03T16:30:34.991Z,34.00
2018-08-03T16:33:03.639Z,33.90
2018-08-03T16:35:32.152Z,33.70
2018-08-03T16:38:00.665Z,33.60
2018-08-03T16:40:29.189Z,33.60
2018-08-03T16:42:57.729Z,33.50
2018-08-03T16:45:26.405Z,33.50
2018-08-03T16:47:54.939Z,33.30
2018-08-03T16:50:23.434Z,33.40
2018-08-03T16:52:51.974Z,33.50
2018-08-03T16:55:20.416Z,33.50
2018-08-03T16:57:49.235Z,33.40
2018-08-03T17:00:18.981Z,33.30
2018-08-03T17:02:48.222Z,33.30
2018-08-03T17:05:16.784Z,33.30
2018-08-03T17:07:45.284Z,33.20
2018-08-03T17:10:13.844Z,33.10
2018-08-03T17:12:42.309Z,33.10
2018-08-03T17:17:39.071Z,33.20
2018-08-03T17:20:07.782Z,33.10
2018-08-03T17:22:36.349Z,33.00
2018-08-03T17:25:05.200Z,33.00
2018-08-03T17:27:33.668Z,33.00
2018-08-03T17:30:02.767Z,32.90
2018-08-03T17:32:31.422Z,32.90
2018-08-03T17:34:59.931Z,32.90
2018-08-03T17:37:28.482Z,32.80
2018-08-03T17:39:56.981Z,32.80
2018-08-03T17:42:25.495Z,32.70
2018-08-03T17:44:54.023Z,32.70
2018-08-03T17:47:22.534Z,32.70
2018-08-03T17:49:51.042Z,32.70
2018-08-03T17:52:19.516Z,32.70
2018-08-03T17:57:16.650Z,32.70
2018-08-03T17:59:45.176Z,32.70
2018-08-03T18:17:09.295Z,32.50
